sensor_id;sensor_type;location;lat;lon;timestamp;pressure;altitude;pressure_sealevel;temperature;humidity
39729;BME280;25402;42.004;23.088;2022-07-01T00:00:00;97312.84;;;18.25;41.25
39729;BME280;25402;42.004;23.088;2022-07-01T00:02:27;97304.63;;;18.25;41.36
39729;BME280;25402;42.004;23.088;2022-07-01T00:04:53;97314.97;;;18.23;41.61
39729;BME280;25402;42.004;23.088;2022-07-01T00:07:19;97318.19;;;18.20;41.69
39729;BME280;25402;42.004;23.088;2022-07-01T00:09:46;97318.66;;;18.17;41.76
39729;BME280;25402;42.004;23.088;2022-07-01T00:12:13;97305.00;;;18.05;41.64
39729;BME280;25402;42.004;23.088;2022-07-01T00:14:39;97288.59;;;17.93;41.69
39729;BME280;25402;42.004;23.088;2022-07-01T00:17:06;97311.41;;;17.99;41.71
39729;BME280;25402;42.004;23.088;2022-07-01T00:19:32;97321.28;;;18.00;41.76
39729;BME280;25402;42.004;23.088;2022-07-01T00:21:59;97320.69;;;17.98;41.99
39729;BME280;25402;42.004;23.088;2022-07-01T00:24:26;97302.03;;;17.83;42.17
39729;BME280;25402;42.004;23.088;2022-07-01T00:26:53;97324.66;;;17.90;42.40
39729;BME280;25402;42.004;23.088;2022-07-01T00:29:20;97322.97;;;17.89;42.57
39729;BME280;25402;42.004;23.088;2022-07-01T00:31:47;97328.44;;;17.89;42.16
39729;BME280;25402;42.004;23.088;2022-07-01T00:34:13;97331.06;;;17.84;42.58
39729;BME280;25402;42.004;23.088;2022-07-01T00:36:40;97332.72;;;17.85;42.53
39729;BME280;25402;42.004;23.088;2022-07-01T00:39:06;97334.50;;;17.80;42.43
39729;BME280;25402;42.004;23.088;2022-07-01T00:41:32;97339.38;;;17.78;42.88
39729;BME280;25402;42.004;23.088;2022-07-01T00:44:00;97345.06;;;17.76;42.74
39729;BME280;25402;42.004;23.088;2022-07-01T00:46:26;97342.56;;;17.75;42.72
39729;BME280;25402;42.004;23.088;2022-07-01T00:48:56;97348.50;;;17.71;43.06
39729;BME280;25402;42.004;23.088;2022-07-01T00:51:23;97347.91;;;17.69;43.24
39729;BME280;25402;42.004;23.088;2022-07-01T00:53:49;97344.94;;;17.59;43.13
39729;BME280;25402;42.004;23.088;2022-07-01T00:56:16;97343.50;;;17.57;43.24
39729;BME280;25402;42.004;23.088;2022-07-01T00:58:43;97348.13;;;17.56;43.22
39729;BME280;25402;42.004;23.088;2022-07-01T01:01:10;97348.84;;;17.52;43.68
39729;BME280;25402;42.004;23.088;2022-07-01T01:03:36;97349.81;;;17.46;43.61
39729;BME280;25402;42.004;23.088;2022-07-01T01:06:03;97364.53;;;17.45;43.52
39729;BME280;25402;42.004;23.088;2022-07-01T01:08:30;97355.00;;;17.35;43.97
39729;BME280;25402;42.004;23.088;2022-07-01T01:10:56;97369.88;;;17.40;43.89
39729;BME280;25402;42.004;23.088;2022-07-01T01:13:23;97366.28;;;17.39;44.32
39729;BME280;25402;42.004;23.088;2022-07-01T01:15:49;97368.66;;;17.35;44.46
39729;BME280;25402;42.004;23.088;2022-07-01T01:18:16;97375.41;;;17.33;44.10
39729;BME280;25402;42.004;23.088;2022-07-01T01:20:43;97347.34;;;17.14;44.28
39729;BME280;25402;42.004;23.088;2022-07-01T01:23:10;97370.75;;;17.22;44.16
39729;BME280;25402;42.004;23.088;2022-07-01T01:25:37;97372.28;;;17.18;44.28
39729;BME280;25402;42.004;23.088;2022-07-01T01:28:03;97377.00;;;17.11;44.25
39729;BME280;25402;42.004;23.088;2022-07-01T01:30:30;97371.75;;;17.09;44.48
39729;BME280;25402;42.004;23.088;2022-07-01T01:32:57;97388.00;;;17.04;44.56
39729;BME280;25402;42.004;23.088;2022-07-01T01:35:23;97388.34;;;16.96;44.34
39729;BME280;25402;42.004;23.088;2022-07-01T01:37:50;97397.00;;;16.93;44.27
39729;BME280;25402;42.004;23.088;2022-07-01T01:40:17;97390.69;;;16.92;44.77
39729;BME280;25402;42.004;23.088;2022-07-01T01:42:44;97387.38;;;16.90;44.63
39729;BME280;25402;42.004;23.088;2022-07-01T01:45:11;97400.19;;;16.90;44.50
39729;BME280;25402;42.004;23.088;2022-07-01T01:47:38;97399.56;;;16.88;44.37
39729;BME280;25402;42.004;23.088;2022-07-01T01:50:05;97397.91;;;16.87;44.71
39729;BME280;25402;42.004;23.088;2022-07-01T01:52:32;97410.72;;;16.86;44.75
39729;BME280;25402;42.004;23.088;2022-07-01T01:54:59;97409.91;;;16.86;44.69
39729;BME280;25402;42.004;23.088;2022-07-01T01:57:26;97410.72;;;16.86;45.03
39729;BME280;25402;42.004;23.088;2022-07-01T01:59:53;97417.75;;;16.82;44.75
39729;BME280;25402;42.004;23.088;2022-07-01T02:02:19;97416.69;;;16.83;44.87
39729;BME280;25402;42.004;23.088;2022-07-01T02:04:46;97419.88;;;16.80;44.76
39729;BME280;25402;42.004;23.088;2022-07-01T02:07:12;97420.94;;;16.79;45.06
39729;BME280;25402;42.004;23.088;2022-07-01T02:09:38;97427.69;;;16.77;45.00
39729;BME280;25402;42.004;23.088;2022-07-01T02:12:06;97422.66;;;16.74;44.77
39729;BME280;25402;42.004;23.088;2022-07-01T02:14:33;97428.59;;;16.71;45.16
39729;BME280;25402;42.004;23.088;2022-07-01T02:16:59;97432.38;;;16.70;45.24
39729;BME280;25402;42.004;23.088;2022-07-01T02:19:25;97428.22;;;16.67;45.33
39729;BME280;25402;42.004;23.088;2022-07-01T02:21:52;97425.72;;;16.65;45.01
39729;BME280;25402;42.004;23.088;2022-07-01T02:24:19;97443.16;;;16.64;45.36
39729;BME280;25402;42.004;23.088;2022-07-01T02:26:45;97437.09;;;16.62;45.09
39729;BME280;25402;42.004;23.088;2022-07-01T02:29:12;97422.53;;;16.50;45.43
39729;BME280;25402;42.004;23.088;2022-07-01T02:31:38;97429.81;;;16.56;45.13
39729;BME280;25402;42.004;23.088;2022-07-01T02:34:05;97433.75;;;16.60;45.35
39729;BME280;25402;42.004;23.088;2022-07-01T02:36:31;97433.97;;;16.59;45.48
39729;BME280;25402;42.004;23.088;2022-07-01T02:38:58;97442.16;;;16.59;45.19
39729;BME280;25402;42.004;23.088;2022-07-01T02:41:24;97447.63;;;16.59;45.16
39729;BME280;25402;42.004;23.088;2022-07-01T02:43:50;97438.81;;;16.57;45.37
39729;BME280;25402;42.004;23.088;2022-07-01T02:46:17;97451.19;;;16.59;45.48
39729;BME280;25402;42.004;23.088;2022-07-01T02:48:44;97450.59;;;16.57;45.78
39729;BME280;25402;42.004;23.088;2022-07-01T02:51:10;97454.16;;;16.58;46.02
39729;BME280;25402;42.004;23.088;2022-07-01T02:53:36;97426.56;;;16.41;45.63
39729;BME280;25402;42.004;23.088;2022-07-01T02:56:03;97456.66;;;16.59;45.81
39729;BME280;25402;42.004;23.088;2022-07-01T02:58:30;97462.13;;;16.59;45.57
39729;BME280;25402;42.004;23.088;2022-07-01T03:00:56;97444.38;;;16.50;45.88
39729;BME280;25402;42.004;23.088;2022-07-01T03:03:23;97458.94;;;16.62;44.79
39729;BME280;25402;42.004;23.088;2022-07-01T03:05:50;97441.16;;;16.53;45.34
39729;BME280;25402;42.004;23.088;2022-07-01T03:08:16;97456.59;;;16.66;45.51
39729;BME280;25402;42.004;23.088;2022-07-01T03:10:43;97467.31;;;16.67;45.76
39729;BME280;25402;42.004;23.088;2022-07-01T03:13:09;97440.34;;;16.53;45.73
39729;BME280;25402;42.004;23.088;2022-07-01T03:15:35;97459.09;;;16.67;45.69
39729;BME280;25402;42.004;23.088;2022-07-01T03:18:02;97461.84;;;16.67;46.05
39729;BME280;25402;42.004;23.088;2022-07-01T03:20:29;97461.84;;;16.67;46.37
39729;BME280;25402;42.004;23.088;2022-07-01T03:22:55;97459.69;;;16.70;46.00
39729;BME280;25402;42.004;23.088;2022-07-01T03:25:22;97475.34;;;16.81;46.46
39729;BME280;25402;42.004;23.088;2022-07-01T03:27:48;97472.16;;;16.84;46.55
39729;BME280;25402;42.004;23.088;2022-07-01T03:30:15;97469.78;;;16.87;46.38
39729;BME280;25402;42.004;23.088;2022-07-01T03:32:43;97475.78;;;16.96;46.70
39729;BME280;25402;42.004;23.088;2022-07-01T03:35:10;97476.97;;;17.00;46.38
39729;BME280;25402;42.004;23.088;2022-07-01T03:37:55;97454.47;;;17.34;46.04
39729;BME280;25402;42.004;23.088;2022-07-01T03:40:21;97462.69;;;17.94;44.62
39729;BME280;25402;42.004;23.088;2022-07-01T03:42:48;97470.47;;;18.56;43.41
39729;BME280;25402;42.004;23.088;2022-07-01T03:45:14;97471.22;;;19.03;42.58
39729;BME280;25402;42.004;23.088;2022-07-01T03:47:45;97461.78;;;19.51;41.39
39729;BME280;25402;42.004;23.088;2022-07-01T03:50:12;97479.19;;;20.01;40.15
39729;BME280;25402;42.004;23.088;2022-07-01T03:52:38;97468.31;;;20.40;39.33
39729;BME280;25402;42.004;23.088;2022-07-01T03:55:07;97478.66;;;20.88;38.00
39729;BME280;25402;42.004;23.088;2022-07-01T03:57:34;97472.34;;;21.31;36.69
39729;BME280;25402;42.004;23.088;2022-07-01T04:00:00;97488.72;;;21.65;35.98
39729;BME280;25402;42.004;23.088;2022-07-01T04:02:26;97467.94;;;22.06;33.98
39729;BME280;25402;42.004;23.088;2022-07-01T04:04:53;97484.09;;;22.61;33.81
39729;BME280;25402;42.004;23.088;2022-07-01T04:07:21;97491.59;;;23.13;33.17
39729;BME280;25402;42.004;23.088;2022-07-01T04:09:48;97489.84;;;23.59;31.91
39729;BME280;25402;42.004;23.088;2022-07-01T04:12:15;97479.72;;;24.00;31.22
39729;BME280;25402;42.004;23.088;2022-07-01T04:14:42;97490.84;;;24.51;30.79
39729;BME280;25402;42.004;23.088;2022-07-01T04:17:08;97493.56;;;24.91;29.82
39729;BME280;25402;42.004;23.088;2022-07-01T04:19:35;97499.84;;;25.27;30.07
39729;BME280;25402;42.004;23.088;2022-07-01T04:22:01;97504.91;;;25.70;29.35
39729;BME280;25402;42.004;23.088;2022-07-01T04:24:46;97496.09;;;26.12;28.50
39729;BME280;25402;42.004;23.088;2022-07-01T04:27:13;97490.47;;;26.56;28.19
39729;BME280;25402;42.004;23.088;2022-07-01T04:29:40;97493.22;;;26.90;27.56
39729;BME280;25402;42.004;23.088;2022-07-01T04:32:06;97498.72;;;27.19;27.59
39729;BME280;25402;42.004;23.088;2022-07-01T04:34:33;97506.28;;;27.61;27.11
39729;BME280;25402;42.004;23.088;2022-07-01T04:36:59;97502.13;;;28.01;26.65
39729;BME280;25402;42.004;23.088;2022-07-01T04:39:25;97504.38;;;28.36;26.14
39729;BME280;25402;42.004;23.088;2022-07-01T04:41:52;97509.81;;;28.79;25.17
39729;BME280;25402;42.004;23.088;2022-07-01T04:44:28;97503.03;;;29.13;25.03
39729;BME280;25402;42.004;23.088;2022-07-01T04:46:56;97506.06;;;29.30;24.20
39729;BME280;25402;42.004;23.088;2022-07-01T04:49:23;97496.25;;;29.60;23.74
39729;BME280;25402;42.004;23.088;2022-07-01T04:51:50;97509.09;;;29.97;23.50
39729;BME280;25402;42.004;23.088;2022-07-01T04:54:16;97493.81;;;30.30;23.18
39729;BME280;25402;42.004;23.088;2022-07-01T04:56:44;97507.78;;;30.97;22.44
39729;BME280;25402;42.004;23.088;2022-07-01T04:59:11;97507.22;;;31.57;21.90
39729;BME280;25402;42.004;23.088;2022-07-01T05:01:38;97505.84;;;32.11;21.45
39729;BME280;25402;42.004;23.088;2022-07-01T05:04:05;97502.25;;;32.71;20.88
39729;BME280;25402;42.004;23.088;2022-07-01T05:06:32;97509.56;;;33.10;20.30
39729;BME280;25402;42.004;23.088;2022-07-01T05:08:59;97519.13;;;33.56;19.66
39729;BME280;25402;42.004;23.088;2022-07-01T05:11:26;97504.53;;;33.71;19.76
39729;BME280;25402;42.004;23.088;2022-07-01T05:13:52;97511.50;;;33.65;19.81
39729;BME280;25402;42.004;23.088;2022-07-01T05:16:19;97511.94;;;33.76;19.57
39729;BME280;25402;42.004;23.088;2022-07-01T05:18:45;97500.53;;;33.43;19.66
39729;BME280;25402;42.004;23.088;2022-07-01T05:21:31;97517.25;;;33.31;20.00
39729;BME280;25402;42.004;23.088;2022-07-01T05:24:15;97506.22;;;33.26;19.96
39729;BME280;25402;42.004;23.088;2022-07-01T05:26:42;97513.38;;;32.97;20.02
39729;BME280;25402;42.004;23.088;2022-07-01T05:29:08;97503.72;;;32.77;20.27
39729;BME280;25402;42.004;23.088;2022-07-01T05:31:35;97497.81;;;32.70;20.23
39729;BME280;25402;42.004;23.088;2022-07-01T05:34:02;97485.78;;;32.53;20.14
39729;BME280;25402;42.004;23.088;2022-07-01T05:36:28;97513.44;;;32.63;20.00
39729;BME280;25402;42.004;23.088;2022-07-01T05:38:55;97509.34;;;32.69;20.49
39729;BME280;25402;42.004;23.088;2022-07-01T05:41:22;97516.72;;;32.82;20.39
39729;BME280;25402;42.004;23.088;2022-07-01T05:43:48;97507.00;;;32.62;20.31
39729;BME280;25402;42.004;23.088;2022-07-01T05:46:15;97504.91;;;32.68;20.23
39729;BME280;25402;42.004;23.088;2022-07-01T05:48:41;97501.59;;;32.66;20.26
39729;BME280;25402;42.004;23.088;2022-07-01T05:51:07;97498.81;;;32.66;20.37
39729;BME280;25402;42.004;23.088;2022-07-01T05:53:34;97510.97;;;32.78;20.20
39729;BME280;25402;42.004;23.088;2022-07-01T05:56:01;97510.25;;;32.90;20.13
39729;BME280;25402;42.004;23.088;2022-07-01T05:58:29;97499.13;;;32.73;19.80
39729;BME280;25402;42.004;23.088;2022-07-01T06:00:55;97513.63;;;32.66;19.73
39729;BME280;25402;42.004;23.088;2022-07-01T06:03:22;97514.44;;;32.67;19.91
39729;BME280;25402;42.004;23.088;2022-07-01T06:05:48;97507.00;;;32.79;19.62
39729;BME280;25402;42.004;23.088;2022-07-01T06:08:14;97490.41;;;32.66;19.56
39729;BME280;25402;42.004;23.088;2022-07-01T06:10:41;97485.78;;;32.70;19.93
39729;BME280;25402;42.004;23.088;2022-07-01T06:13:08;97499.75;;;32.61;19.98
39729;BME280;25402;42.004;23.088;2022-07-01T06:15:34;97496.34;;;32.38;20.30
39729;BME280;25402;42.004;23.088;2022-07-01T06:18:01;97501.94;;;32.38;20.20
39729;BME280;25402;42.004;23.088;2022-07-01T06:20:28;97492.34;;;32.13;20.15
39729;BME280;25402;42.004;23.088;2022-07-01T06:22:54;97500.09;;;32.16;20.06
39729;BME280;25402;42.004;23.088;2022-07-01T06:25:21;97494.31;;;32.13;20.51
39729;BME280;25402;42.004;23.088;2022-07-01T06:27:47;97491.38;;;32.18;20.57
39729;BME280;25402;42.004;23.088;2022-07-01T06:30:17;97489.09;;;32.37;20.11
39729;BME280;25402;42.004;23.088;2022-07-01T06:32:44;97487.44;;;32.28;20.26
39729;BME280;25402;42.004;23.088;2022-07-01T06:35:10;97497.34;;;32.42;20.06
39729;BME280;25402;42.004;23.088;2022-07-01T06:37:37;97485.16;;;32.38;20.12
39729;BME280;25402;42.004;23.088;2022-07-01T06:40:05;97491.56;;;32.47;19.85
39729;BME280;25402;42.004;23.088;2022-07-01T06:42:34;97490.41;;;32.40;20.24
39729;BME280;25402;42.004;23.088;2022-07-01T06:45:01;97487.44;;;32.36;20.18
39729;BME280;25402;42.004;23.088;2022-07-01T06:47:29;97481.84;;;32.10;20.57
39729;BME280;25402;42.004;23.088;2022-07-01T06:49:56;97466.34;;;32.13;20.21
39729;BME280;25402;42.004;23.088;2022-07-01T06:52:22;97474.75;;;32.30;20.23
39729;BME280;25402;42.004;23.088;2022-07-01T06:54:49;97476.06;;;32.67;19.61
39729;BME280;25402;42.004;23.088;2022-07-01T06:57:15;97473.09;;;32.55;19.78
39729;BME280;25402;42.004;23.088;2022-07-01T06:59:41;97464.66;;;32.64;19.91
39729;BME280;25402;42.004;23.088;2022-07-01T07:02:08;97467.63;;;32.76;19.97
39729;BME280;25402;42.004;23.088;2022-07-01T07:04:35;97458.44;;;32.58;19.74
39729;BME280;25402;42.004;23.088;2022-07-01T07:07:02;97463.22;;;32.58;19.72
39729;BME280;25402;42.004;23.088;2022-07-01T07:09:29;97469.81;;;32.53;19.90
39729;BME280;25402;42.004;23.088;2022-07-01T07:11:55;97459.72;;;32.61;19.53
39729;BME280;25402;42.004;23.088;2022-07-01T07:14:21;97467.50;;;32.72;19.56
39729;BME280;25402;42.004;23.088;2022-07-01T07:16:48;97462.72;;;32.47;19.71
39729;BME280;25402;42.004;23.088;2022-07-01T07:19:16;97458.28;;;32.46;19.81
39729;BME280;25402;42.004;23.088;2022-07-01T07:21:43;97457.00;;;32.35;19.83
39729;BME280;25402;42.004;23.088;2022-07-01T07:24:10;97457.31;;;32.42;19.85
39729;BME280;25402;42.004;23.088;2022-07-01T07:26:37;97433.13;;;32.29;19.46
39729;BME280;25402;42.004;23.088;2022-07-01T07:29:11;97446.75;;;32.47;19.50
39729;BME280;25402;42.004;23.088;2022-07-01T07:31:38;97446.94;;;32.34;19.71
39729;BME280;25402;42.004;23.088;2022-07-01T07:34:04;97437.56;;;32.21;20.06
39729;BME280;25402;42.004;23.088;2022-07-01T07:36:31;97446.28;;;32.28;19.93
39729;BME280;25402;42.004;23.088;2022-07-01T07:38:58;97444.31;;;32.37;19.77
39729;BME280;25402;42.004;23.088;2022-07-01T07:41:25;97430.31;;;32.20;19.41
39729;BME280;25402;42.004;23.088;2022-07-01T07:43:51;97445.63;;;32.31;19.63
39729;BME280;25402;42.004;23.088;2022-07-01T07:46:18;97437.41;;;32.35;19.70
39729;BME280;25402;42.004;23.088;2022-07-01T07:48:44;97441.69;;;32.32;19.43
39729;BME280;25402;42.004;23.088;2022-07-01T07:51:11;97432.78;;;32.30;19.90
39729;BME280;25402;42.004;23.088;2022-07-01T07:53:42;97428.53;;;32.24;19.53
39729;BME280;25402;42.004;23.088;2022-07-01T07:56:09;97432.28;;;32.20;19.45
39729;BME280;25402;42.004;23.088;2022-07-01T07:58:36;97420.28;;;32.19;19.25
39729;BME280;25402;42.004;23.088;2022-07-01T08:01:02;97419.78;;;32.00;19.73
39729;BME280;25402;42.004;23.088;2022-07-01T08:03:29;97413.16;;;31.53;20.13
39729;BME280;25402;42.004;23.088;2022-07-01T08:05:55;97419.59;;;31.62;20.06
39729;BME280;25402;42.004;23.088;2022-07-01T08:08:22;97419.09;;;31.68;20.10
39729;BME280;25402;42.004;23.088;2022-07-01T08:10:48;97419.75;;;31.65;19.66
39729;BME280;25402;42.004;23.088;2022-07-01T08:13:15;97408.56;;;31.65;19.98
39729;BME280;25402;42.004;23.088;2022-07-01T08:15:41;97407.75;;;31.73;20.29
39729;BME280;25402;42.004;23.088;2022-07-01T08:18:08;97415.00;;;31.74;20.34
39729;BME280;25402;42.004;23.088;2022-07-01T08:20:35;97397.91;;;31.85;20.52
39729;BME280;25402;42.004;23.088;2022-07-01T08:23:01;97397.34;;;31.39;20.88
39729;BME280;25402;42.004;23.088;2022-07-01T08:25:28;97396.19;;;30.92;21.56
39729;BME280;25402;42.004;23.088;2022-07-01T08:27:54;97382.84;;;30.89;21.49
39729;BME280;25402;42.004;23.088;2022-07-01T08:30:21;97374.69;;;31.01;21.39
39729;BME280;25402;42.004;23.088;2022-07-01T08:32:48;97386.28;;;31.26;21.59
39729;BME280;25402;42.004;23.088;2022-07-01T08:35:14;97389.31;;;31.46;21.35
39729;BME280;25402;42.004;23.088;2022-07-01T08:37:41;97392.78;;;31.61;21.20
39729;BME280;25402;42.004;23.088;2022-07-01T08:40:08;97364.97;;;31.64;21.35
39729;BME280;25402;42.004;23.088;2022-07-01T08:42:35;97378.50;;;31.88;21.45
39729;BME280;25402;42.004;23.088;2022-07-01T08:45:01;97364.34;;;31.93;20.78
39729;BME280;25402;42.004;23.088;2022-07-01T08:47:28;97377.63;;;32.13;20.84
39729;BME280;25402;42.004;23.088;2022-07-01T08:49:55;97380.47;;;32.05;20.96
39729;BME280;25402;42.004;23.088;2022-07-01T08:52:21;97374.22;;;32.08;20.80
39729;BME280;25402;42.004;23.088;2022-07-01T08:54:48;97371.25;;;32.04;20.79
39729;BME280;25402;42.004;23.088;2022-07-01T08:57:21;97364.66;;;32.09;20.35
39729;BME280;25402;42.004;23.088;2022-07-01T09:00:00;97367.25;;;32.31;20.93
39729;BME280;25402;42.004;23.088;2022-07-01T09:02:49;97369.53;;;32.46;20.18
39729;BME280;25402;42.004;23.088;2022-07-01T09:05:16;97356.06;;;32.31;19.84
39729;BME280;25402;42.004;23.088;2022-07-01T09:07:42;97370.22;;;32.35;20.15
39729;BME280;25402;42.004;23.088;2022-07-01T09:10:12;97351.28;;;32.14;20.33
39729;BME280;25402;42.004;23.088;2022-07-01T09:12:39;97368.75;;;32.29;20.71
39729;BME280;25402;42.004;23.088;2022-07-01T09:15:19;97365.72;;;32.51;20.02
39729;BME280;25402;42.004;23.088;2022-07-01T09:17:46;97363.06;;;32.72;20.20
39729;BME280;25402;42.004;23.088;2022-07-01T09:20:23;97357.16;;;32.94;20.03
39729;BME280;25402;42.004;23.088;2022-07-01T09:22:59;97356.63;;;33.09;20.27
39729;BME280;25402;42.004;23.088;2022-07-01T09:25:27;97360.94;;;33.28;20.07
39729;BME280;25402;42.004;23.088;2022-07-01T09:28:03;97360.44;;;33.55;19.36
39729;BME280;25402;42.004;23.088;2022-07-01T09:30:30;97357.44;;;33.60;18.73
39729;BME280;25402;42.004;23.088;2022-07-01T09:33:10;97335.63;;;33.66;19.20
39729;BME280;25402;42.004;23.088;2022-07-01T09:35:37;97344.16;;;33.69;19.09
39729;BME280;25402;42.004;23.088;2022-07-01T09:38:04;97337.47;;;33.82;19.01
39729;BME280;25402;42.004;23.088;2022-07-01T09:40:50;97338.84;;;33.56;18.59
39729;BME280;25402;42.004;23.088;2022-07-01T09:43:18;97320.13;;;33.47;18.92
39729;BME280;25402;42.004;23.088;2022-07-01T09:46:06;97343.81;;;33.71;18.69
39729;BME280;25402;42.004;23.088;2022-07-01T09:48:44;97336.31;;;33.83;18.69
39729;BME280;25402;42.004;23.088;2022-07-01T09:51:12;97326.94;;;34.00;18.59
39729;BME280;25402;42.004;23.088;2022-07-01T09:53:39;97326.25;;;33.82;18.44
39729;BME280;25402;42.004;23.088;2022-07-01T09:56:05;97325.16;;;33.96;18.14
39729;BME280;25402;42.004;23.088;2022-07-01T09:58:32;97317.25;;;34.10;17.97
39729;BME280;25402;42.004;23.088;2022-07-01T10:00:58;97316.06;;;34.32;18.04
39729;BME280;25402;42.004;23.088;2022-07-01T10:03:26;97313.13;;;34.52;17.90
39729;BME280;25402;42.004;23.088;2022-07-01T10:05:56;97300.41;;;34.67;17.66
39729;BME280;25402;42.004;23.088;2022-07-01T10:08:36;97296.22;;;34.85;17.68
39729;BME280;25402;42.004;23.088;2022-07-01T10:11:28;97297.50;;;34.88;17.72
39729;BME280;25402;42.004;23.088;2022-07-01T10:14:03;97293.75;;;34.84;17.37
39729;BME280;25402;42.004;23.088;2022-07-01T10:16:31;97286.97;;;34.73;17.52
39729;BME280;25402;42.004;23.088;2022-07-01T10:18:58;97283.56;;;34.92;17.52
39729;BME280;25402;42.004;23.088;2022-07-01T10:21:27;97268.81;;;34.95;17.42
39729;BME280;25402;42.004;23.088;2022-07-01T10:24:14;97285.56;;;34.91;16.12
39729;BME280;25402;42.004;23.088;2022-07-01T10:26:40;97259.78;;;34.65;16.42
39729;BME280;25402;42.004;23.088;2022-07-01T10:29:29;97270.81;;;34.82;16.42
39729;BME280;25402;42.004;23.088;2022-07-01T10:32:00;97271.50;;;34.91;16.35
39729;BME280;25402;42.004;23.088;2022-07-01T10:34:34;97263.66;;;34.97;15.94
39729;BME280;25402;42.004;23.088;2022-07-01T10:37:02;97263.78;;;34.88;16.06
39729;BME280;25402;42.004;23.088;2022-07-01T10:39:29;97251.84;;;34.91;16.58
39729;BME280;25402;42.004;23.088;2022-07-01T10:41:58;97255.69;;;34.99;16.19
39729;BME280;25402;42.004;23.088;2022-07-01T10:44:27;97235.22;;;34.86;16.22
39729;BME280;25402;42.004;23.088;2022-07-01T10:46:55;97248.34;;;34.94;16.31
39729;BME280;25402;42.004;23.088;2022-07-01T10:49:52;97250.28;;;35.06;15.78
39729;BME280;25402;42.004;23.088;2022-07-01T10:52:19;97238.66;;;35.32;15.72
39729;BME280;25402;42.004;23.088;2022-07-01T10:54:47;97229.59;;;35.50;15.69
39729;BME280;25402;42.004;23.088;2022-07-01T10:57:21;97238.84;;;35.51;13.77
39729;BME280;25402;42.004;23.088;2022-07-01T10:59:50;97244.06;;;35.25;14.51
39729;BME280;25402;42.004;23.088;2022-07-01T11:02:18;97236.88;;;35.39;14.63
39729;BME280;25402;42.004;23.088;2022-07-01T11:04:46;97236.59;;;35.56;14.94
39729;BME280;25402;42.004;23.088;2022-07-01T11:07:12;97224.41;;;35.80;14.95
39729;BME280;25402;42.004;23.088;2022-07-01T11:09:40;97228.28;;;36.04;14.81
39729;BME280;25402;42.004;23.088;2022-07-01T11:12:07;97208.44;;;35.84;15.12
39729;BME280;25402;42.004;23.088;2022-07-01T11:14:34;97221.47;;;36.05;15.21
39729;BME280;25402;42.004;23.088;2022-07-01T11:17:01;97212.75;;;35.66;14.83
39729;BME280;25402;42.004;23.088;2022-07-01T11:19:28;97213.97;;;35.81;14.93
39729;BME280;25402;42.004;23.088;2022-07-01T11:21:55;97214.31;;;35.79;14.66
39729;BME280;25402;42.004;23.088;2022-07-01T11:24:23;97193.09;;;35.82;14.31
39729;BME280;25402;42.004;23.088;2022-07-01T11:26:55;97207.63;;;34.76;15.12
39729;BME280;25402;42.004;23.088;2022-07-01T11:29:28;97210.13;;;35.17;15.44
39729;BME280;25402;42.004;23.088;2022-07-01T11:31:54;97196.41;;;35.56;15.02
39729;BME280;25402;42.004;23.088;2022-07-01T11:34:21;97211.47;;;36.07;14.30
39729;BME280;25402;42.004;23.088;2022-07-01T11:36:48;97196.81;;;36.30;13.53
39729;BME280;25402;42.004;23.088;2022-07-01T11:39:33;97203.78;;;36.20;13.37
39729;BME280;25402;42.004;23.088;2022-07-01T11:42:03;97216.38;;;36.10;13.73
39729;BME280;25402;42.004;23.088;2022-07-01T11:44:33;97203.47;;;36.25;13.45
39729;BME280;25402;42.004;23.088;2022-07-01T11:47:00;97184.44;;;36.18;13.37
39729;BME280;25402;42.004;23.088;2022-07-01T11:49:27;97191.03;;;36.26;13.06
39729;BME280;25402;42.004;23.088;2022-07-01T11:51:55;97191.88;;;36.42;13.48
39729;BME280;25402;42.004;23.088;2022-07-01T11:54:22;97190.34;;;36.29;13.14
39729;BME280;25402;42.004;23.088;2022-07-01T11:56:49;97179.84;;;35.82;13.23
39729;BME280;25402;42.004;23.088;2022-07-01T11:59:16;97182.06;;;35.61;13.49
39729;BME280;25402;42.004;23.088;2022-07-01T12:01:50;97188.88;;;36.04;13.31
39729;BME280;25402;42.004;23.088;2022-07-01T12:04:17;97178.34;;;36.48;13.09
39729;BME280;25402;42.004;23.088;2022-07-01T12:06:44;97173.16;;;36.50;12.73
39729;BME280;25402;42.004;23.088;2022-07-01T12:09:13;97171.97;;;36.67;12.72
39729;BME280;25402;42.004;23.088;2022-07-01T12:11:44;97166.03;;;37.07;12.43
39729;BME280;25402;42.004;23.088;2022-07-01T12:14:11;97162.09;;;37.50;11.98
39729;BME280;25402;42.004;23.088;2022-07-01T12:16:39;97152.84;;;37.91;11.67
39729;BME280;25402;42.004;23.088;2022-07-01T12:19:06;97155.09;;;38.28;11.70
39729;BME280;25402;42.004;23.088;2022-07-01T12:21:48;97147.41;;;38.51;11.05
39729;BME280;25402;42.004;23.088;2022-07-01T12:24:15;97150.31;;;38.55;11.11
39729;BME280;25402;42.004;23.088;2022-07-01T12:26:51;97145.69;;;38.20;11.18
39729;BME280;25402;42.004;23.088;2022-07-01T12:29:22;97156.72;;;37.64;11.54
39729;BME280;25402;42.004;23.088;2022-07-01T12:31:57;97161.34;;;37.72;11.46
39729;BME280;25402;42.004;23.088;2022-07-01T12:34:37;97176.44;;;36.52;12.52
39729;BME280;25402;42.004;23.088;2022-07-01T12:37:03;97197.97;;;34.65;15.08
39729;BME280;25402;42.004;23.088;2022-07-01T12:39:42;97190.78;;;31.81;19.16
39729;BME280;25402;42.004;23.088;2022-07-01T12:42:08;97185.53;;;30.50;21.38
39729;BME280;25402;42.004;23.088;2022-07-01T12:44:46;97179.75;;;29.76;22.51
39729;BME280;25402;42.004;23.088;2022-07-01T12:47:18;97159.97;;;28.88;23.23
39729;BME280;25402;42.004;23.088;2022-07-01T12:49:44;97194.66;;;28.68;22.96
39729;BME280;25402;42.004;23.088;2022-07-01T12:52:23;97178.66;;;28.74;23.56
39729;BME280;25402;42.004;23.088;2022-07-01T12:54:49;97190.75;;;28.01;25.00